Time;durP1;ratioP1;P1;durP2;ratioP2;P2;SDS_P1;SDS_P2;PMS_P1;PMS_P2;Temp;Humidity;BMP_temperature;BMP_pressure;BME280_temperature;BME280_humidity;BME280_pressure;Samples;Min_cycle;Max_cycle;Signal;HPM_P1;HPM_P2
2022/07/03 11:14:41;;;;;;;2.60;0.10;;;;;;;20.75;100.00;101141.09;5059044;28;20055;-45
2022/07/03 11:17:37;;;;;;;1.67;0.08;;;;;;;21.50;100.00;101131.81;5054088;28;20093;-63
2022/07/03 11:20:53;;;;;;;0.47;0.00;;;;;;;21.16;100.00;101137.19;5062224;28;20342;-53
2022/07/03 11:24:09;;;;;;;2.63;0.00;;;;;;;20.32;100.00;101142.44;5032623;28;20056;-63
2022/07/03 11:27:20;;;;;;;0.52;0.00;;;;;;;20.03;100.00;101145.06;5053994;28;20171;-64
2022/07/03 11:30:13;;;;;;;2.65;0.55;;;;;;;20.01;100.00;101145.34;5049388;28;20131;-63
2022/07/03 11:33:07;;;;;;;1.85;0.32;;;;;;;20.30;100.00;101145.38;5047841;28;20041;-64
2022/07/03 11:36:01;;;;;;;0.43;0.00;;;;;;;20.87;100.00;101136.47;5047705;28;20068;-51
2022/07/03 11:38:53;;;;;;;2.55;0.00;;;;;;;21.42;100.00;101140.31;5059299;28;20123;-47
2022/07/03 11:45:17;;;;;;;0.93;0.00;;;;;;;20.61;100.00;101149.47;5056585;28;20036;-56
2022/07/03 11:48:13;;;;;;;1.58;0.00;;;;;;;20.96;100.00;101143.09;5062886;28;20086;-52
2022/07/03 11:51:09;;;;;;;1.65;0.00;;;;;;;20.61;100.00;101157.56;5064038;28;20069;-60
2022/07/03 11:54:01;;;;;;;0.65;0.63;;;;;;;20.23;100.00;101155.44;5043835;28;20080;-59
2022/07/03 11:56:54;;;;;;;0.52;0.10;;;;;;;20.92;100.00;101155.41;5060090;28;20521;-48
2022/07/03 11:59:46;;;;;;;0.75;0.10;;;;;;;21.43;100.00;101155.47;5057845;28;20093;-59
2022/07/03 12:02:38;;;;;;;0.20;0.00;;;;;;;21.08;100.00;101148.41;5060580;28;20048;-63
2022/07/03 12:05:31;;;;;;;0.55;0.00;;;;;;;21.63;100.00;101139.53;5047459;28;20047;-64
2022/07/03 12:08:29;;;;;;;1.25;0.00;;;;;;;22.04;100.00;101136.56;5052275;28;20043;-49
2022/07/03 12:11:33;;;;;;;0.52;0.30;;;;;;;22.49;100.00;101139.00;5068383;28;20417;-60
2022/07/03 12:14:25;;;;;;;0.43;0.20;;;;;;;22.50;100.00;101137.13;5050882;28;20119;-56
2022/07/03 12:17:20;;;;;;;1.02;0.00;;;;;;;22.25;100.00;101141.16;5051630;28;20456;-65
2022/07/03 12:20:16;;;;;;;0.10;0.05;;;;;;;21.99;100.00;101138.16;5038173;28;20369;-59
2022/07/03 12:23:09;;;;;;;0.00;0.00;;;;;;;22.52;96.37;101129.59;5051118;28;20033;-62
2022/07/03 12:26:01;;;;;;;0.10;0.00;;;;;;;22.78;94.92;101131.44;5049192;28;20063;-63
2022/07/03 12:28:54;;;;;;;0.85;0.10;;;;;;;22.68;84.40;101130.53;5055281;28;20112;-58
2022/07/03 12:31:48;;;;;;;0.28;0.00;;;;;;;22.60;93.61;101135.34;5053039;28;20470;-54
2022/07/03 12:34:40;;;;;;;0.00;0.00;;;;;;;23.17;92.49;101131.25;5052042;28;20120;-55
2022/07/03 12:37:45;;;;;;;2.10;0.00;;;;;;;22.50;79.27;101137.94;5052107;28;20492;-53
2022/07/03 12:40:38;;;;;;;0.93;0.43;;;;;;;21.78;96.13;101133.53;5038541;28;20036;-66
2022/07/03 12:43:30;;;;;;;0.00;0.00;;;;;;;21.80;97.06;101146.81;5050655;28;20020;-52
2022/07/03 12:46:46;;;;;;;0.22;0.22;;;;;;;21.74;89.42;101148.63;5045433;28;20025;-59
2022/07/03 12:49:39;;;;;;;1.85;0.00;;;;;;;21.67;97.67;101150.69;5027307;28;20308;-54
2022/07/03 12:52:31;;;;;;;0.90;0.00;;;;;;;21.33;95.16;101150.69;5057810;28;20017;-64
2022/07/03 12:55:36;;;;;;;0.82;0.75;;;;;;;20.65;98.76;101147.13;5058949;28;20497;-64
2022/07/03 13:01:43;;;;;;;1.55;0.00;;;;;;;20.44;100.00;101149.41;5043283;28;20041;-53
2022/07/03 13:04:46;;;;;;;0.00;0.00;;;;;;;19.91;100.00;101145.13;5048326;28;20028;-63
2022/07/03 13:07:49;;;;;;;0.45;0.00;;;;;;;19.96;100.00;101144.41;5041902;28;20122;-66
2022/07/03 13:10:43;;;;;;;0.20;0.00;;;;;;;20.03;100.00;101148.63;5039199;28;20036;-64
2022/07/03 13:13:48;;;;;;;1.05;0.00;;;;;;;20.04;100.00;101142.16;5032109;28;20119;-65
2022/07/03 13:16:44;;;;;;;0.10;0.10;;;;;;;19.91;100.00;101142.44;5037577;28;20051;-66
2022/07/03 13:19:38;;;;;;;0.28;0.00;;;;;;;19.99;100.00;101143.94;5052152;28;20037;-57
2022/07/03 13:22:30;;;;;;;0.00;0.00;;;;;;;20.18;100.00;101148.06;5049390;28;20403;-65
2022/07/03 13:25:22;;;;;;;0.57;0.43;;;;;;;20.21;100.00;101138.72;5032245;28;20334;-65
2022/07/03 13:28:26;;;;;;;0.30;0.00;;;;;;;20.28;100.00;101142.09;5046268;28;20078;-65
2022/07/03 13:31:18;;;;;;;0.05;0.05;;;;;;;20.14;100.00;101146.94;5043171;28;20033;-66
2022/07/03 13:34:11;;;;;;;0.30;0.00;;;;;;;20.22;100.00;101149.25;5036359;28;20142;-65
2022/07/03 13:37:03;;;;;;;2.67;0.00;;;;;;;20.16;100.00;101146.69;5032928;28;20037;-65
2022/07/03 13:39:55;;;;;;;0.30;0.10;;;;;;;20.07;100.00;101148.94;5060402;28;20036;-66
2022/07/03 13:42:47;;;;;;;0.68;0.00;;;;;;;20.02;100.00;101144.25;5055707;28;20037;-65
2022/07/03 13:45:40;;;;;;;1.08;0.00;;;;;;;20.15;100.00;101147.75;5047357;28;20044;-66
2022/07/03 13:48:32;;;;;;;1.02;0.00;;;;;;;20.42;100.00;101148.84;5054849;28;20037;-64
2022/07/03 13:51:25;;;;;;;0.00;0.00;;;;;;;20.60;100.00;101150.56;5056979;28;20449;-61
2022/07/03 13:54:17;;;;;;;0.20;0.00;;;;;;;20.77;100.00;101144.38;5066078;28;20024;-66
2022/07/03 13:57:10;;;;;;;0.65;0.00;;;;;;;21.15;100.00;101140.16;5063427;28;20279;-60
2022/07/03 14:00:02;;;;;;;0.75;0.10;;;;;;;20.77;100.00;101145.19;5061242;28;20442;-62
2022/07/03 14:02:55;;;;;;;0.75;0.35;;;;;;;20.72;100.00;101144.28;5039430;28;20473;-65
2022/07/03 14:05:50;;;;;;;0.15;0.00;;;;;;;20.91;100.00;101145.72;5055890;28;20033;-63
2022/07/03 14:08:43;;;;;;;1.35;0.00;;;;;;;21.06;100.00;101145.94;5058744;28;20052;-53
2022/07/03 14:11:35;;;;;;;0.00;0.00;;;;;;;21.00;99.61;101148.81;5056682;28;20052;-57
2022/07/03 14:14:27;;;;;;;0.45;0.00;;;;;;;20.91;100.00;101162.69;5054667;28;20035;-66
2022/07/03 14:17:19;;;;;;;0.00;0.00;;;;;;;21.02;100.00;101158.28;5049534;28;22198;-51
2022/07/03 14:20:12;;;;;;;0.28;0.00;;;;;;;20.80;99.93;101151.97;5034993;28;20123;-56
2022/07/03 14:23:05;;;;;;;0.00;0.00;;;;;;;20.53;100.00;101152.53;5060920;28;20089;-54
2022/07/03 14:25:57;;;;;;;0.20;0.00;;;;;;;20.72;100.00;101153.19;5055405;28;20041;-54
2022/07/03 14:35:07;;;;;;;0.82;0.00;;;;;;;20.68;100.00;101166.31;5048362;28;20040;-65
2022/07/03 14:38:00;;;;;;;0.03;0.00;;;;;;;20.40;100.00;101167.09;5034642;28;20335;-65
2022/07/03 14:41:12;;;;;;;0.43;0.00;;;;;;;20.24;100.00;101163.31;5057638;28;20044;-49
2022/07/03 14:44:04;;;;;;;3.33;0.00;;;;;;;20.57;100.00;101172.56;5039593;28;20055;-56
2022/07/03 14:46:57;;;;;;;1.95;0.20;;;;;;;20.63;100.00;101174.31;5065784;28;20058;-62
2022/07/03 14:49:49;;;;;;;2.63;0.28;;;;;;;21.12;100.00;101171.13;5055476;28;20048;-66
2022/07/03 14:52:41;;;;;;;0.00;0.00;;;;;;;21.32;100.00;101167.91;5055523;28;20041;-56
2022/07/03 14:55:38;;;;;;;0.00;0.00;;;;;;;21.52;100.00;101167.47;5052194;28;20051;-51
2022/07/03 14:58:35;;;;;;;1.17;0.63;;;;;;;21.45;100.00;101177.59;5047422;28;20448;-50
2022/07/03 15:01:28;;;;;;;0.30;0.03;;;;;;;21.28;100.00;101177.59;5041923;28;20033;-54
2022/07/03 15:07:32;;;;;;;0.20;0.00;;;;;;;20.98;100.00;101178.69;5048928;28;20551;-57
2022/07/03 15:10:27;;;;;;;0.38;0.10;;;;;;;20.88;100.00;101173.13;5047748;28;20445;-65
2022/07/03 15:13:35;;;;;;;0.10;0.00;;;;;;;20.88;100.00;101175.81;5046510;28;20025;-65
2022/07/03 15:16:27;;;;;;;0.30;0.10;;;;;;;20.95;100.00;101179.19;5035247;28;20028;-64
2022/07/03 15:19:21;;;;;;;0.75;0.30;;;;;;;20.79;100.00;101179.97;5041852;28;20029;-62
2022/07/03 15:22:13;;;;;;;1.63;0.10;;;;;;;20.53;100.00;101175.97;5054650;28;20040;-64
2022/07/03 15:25:07;;;;;;;2.10;0.08;;;;;;;20.23;100.00;101177.81;5047066;28;20508;-56
2022/07/03 15:28:00;;;;;;;0.52;0.00;;;;;;;19.94;100.00;101174.25;5053917;28;20063;-59
2022/07/03 15:30:55;;;;;;;0.82;0.25;;;;;;;19.77;100.00;101178.69;5046240;28;20465;-64
2022/07/03 15:33:47;;;;;;;1.58;0.00;;;;;;;19.62;100.00;101179.16;5036014;28;20439;-62
2022/07/03 15:36:53;;;;;;;0.17;0.00;;;;;;;19.38;100.00;101192.56;5045404;28;20047;-59
2022/07/03 15:39:58;;;;;;;1.23;0.08;;;;;;;18.89;100.00;101191.88;5048136;28;20043;-65
2022/07/03 15:43:12;;;;;;;0.52;0.28;;;;;;;18.70;100.00;101193.78;5048061;28;20127;-63
2022/07/03 15:46:24;;;;;;;0.20;0.00;;;;;;;18.55;100.00;101197.91;5031054;28;20060;-60
2022/07/03 15:49:33;;;;;;;2.20;0.00;;;;;;;18.52;100.00;101202.69;5034138;28;20068;-63
2022/07/03 15:52:36;;;;;;;1.20;0.10;;;;;;;18.44;100.00;101196.81;5034801;28;20048;-49
2022/07/03 15:55:33;;;;;;;0.90;0.00;;;;;;;18.35;100.00;101196.28;5031229;28;20037;-63
2022/07/03 15:58:28;;;;;;;2.72;0.32;;;;;;;18.24;100.00;101194.38;5051528;28;20040;-64
2022/07/03 16:04:51;;;;;;;1.65;0.28;;;;;;;18.22;100.00;101209.88;5039901;28;20048;-59
2022/07/03 16:07:52;;;;;;;0.52;0.00;;;;;;;18.17;100.00;101212.41;5041137;28;20032;-64
2022/07/03 16:10:55;;;;;;;2.97;0.10;;;;;;;18.14;100.00;101216.34;5049437;28;20036;-62
2022/07/03 16:13:50;;;;;;;2.00;0.10;;;;;;;17.97;100.00;101221.50;5051648;28;20440;-65
2022/07/03 16:16:56;;;;;;;1.33;0.10;;;;;;;17.78;100.00;101215.22;5027103;28;20481;-52
2022/07/03 16:20:08;;;;;;;0.35;0.17;;;;;;;17.63;100.00;101212.06;5050388;28;20063;-66
2022/07/03 16:23:03;;;;;;;6.93;1.55;;;;;;;17.84;100.00;101206.34;5058328;28;20039;-65
2022/07/03 16:25:56;;;;;;;2.42;0.13;;;;;;;18.38;100.00;101214.66;5055076;28;20144;-66
2022/07/03 16:29:00;;;;;;;0.10;0.00;;;;;;;19.06;100.00;101204.69;5048559;28;20389;-60
2022/07/03 16:31:58;;;;;;;1.10;0.10;;;;;;;19.60;100.00;101200.09;5055192;28;20037;-64
2022/07/03 16:35:05;;;;;;;0.55;0.00;;;;;;;20.06;100.00;101198.47;5058286;28;20044;-65
2022/07/03 16:38:12;;;;;;;0.47;0.13;;;;;;;20.12;100.00;101192.13;5042314;28;20054;-65
2022/07/03 16:41:07;;;;;;;0.50;0.00;;;;;;;19.74;100.00;101193.44;5051947;28;20469;-55
2022/07/03 16:44:04;;;;;;;0.25;0.10;;;;;;;19.30;100.00;101195.59;5062959;28;20031;-61
2022/07/03 16:46:59;;;;;;;2.55;0.00;;;;;;;19.24;100.00;101196.53;5071196;28;20024;-65
2022/07/03 16:49:53;;;;;;;1.98;0.00;;;;;;;19.20;100.00;101195.34;5058720;28;20044;-64
2022/07/03 16:52:46;;;;;;;0.45;0.00;;;;;;;19.11;100.00;101192.19;5058896;28;20080;-61
2022/07/03 16:55:39;;;;;;;3.80;0.00;;;;;;;19.24;100.00;101185.78;5054321;28;20223;-64
2022/07/03 16:58:33;;;;;;;1.48;0.17;;;;;;;19.27;100.00;101185.31;5060655;28;20032;-59
2022/07/03 17:01:26;;;;;;;4.07;0.20;;;;;;;19.38;100.00;101187.19;5061162;28;20029;-59
2022/07/03 17:05:02;;;;;;;0.68;0.47;;;;;;;19.27;100.00;101185.31;5059017;28;20353;-54
2022/07/03 17:08:12;;;;;;;2.25;0.70;;;;;;;19.49;100.00;101182.06;5044308;28;20186;-52
2022/07/03 17:11:05;;;;;;;1.23;0.10;;;;;;;19.52;100.00;101187.81;5034268;28;20037;-56
2022/07/03 17:17:11;;;;;;;1.25;0.10;;;;;;;19.45;100.00;101181.72;5044358;28;20040;-64
2022/07/03 17:20:21;;;;;;;0.50;0.00;;;;;;;19.20;100.00;101179.22;5058595;28;20029;-63
2022/07/03 17:23:16;;;;;;;0.95;0.68;;;;;;;19.13;100.00;101178.53;5041356;28;20032;-65
2022/07/03 17:26:15;;;;;;;0.00;0.00;;;;;;;19.04;100.00;101171.84;5055832;28;20039;-65
2022/07/03 17:29:15;;;;;;;1.27;0.30;;;;;;;19.02;100.00;101172.06;5056582;28;20535;-65
2022/07/03 17:32:08;;;;;;;1.15;0.52;;;;;;;20.17;100.00;101168.00;5049910;28;20039;-65
2022/07/03 17:35:03;;;;;;;0.65;0.20;;;;;;;20.56;100.00;101162.84;5049710;28;20059;-65
2022/07/03 17:37:57;;;;;;;1.33;0.10;;;;;;;20.60;100.00;101171.25;5058755;28;20029;-61
2022/07/03 17:40:52;;;;;;;0.95;0.20;;;;;;;20.11;100.00;101176.19;5051657;28;20041;-65
2022/07/03 17:43:46;;;;;;;0.20;0.00;;;;;;;20.21;100.00;101177.25;5060152;28;20438;-64
2022/07/03 17:46:39;;;;;;;0.38;0.00;;;;;;;19.94;100.00;101176.94;5060095;28;20048;-65
2022/07/03 17:49:33;;;;;;;0.43;0.00;;;;;;;19.54;100.00;101171.41;5052040;28;20390;-60
2022/07/03 17:52:25;;;;;;;0.00;0.00;;;;;;;19.04;100.00;101169.97;5041341;28;20044;-58
2022/07/03 17:55:20;;;;;;;0.52;0.00;;;;;;;18.71;100.00;101175.78;5048002;28;20123;-63
2022/07/03 17:58:13;;;;;;;2.10;0.52;;;;;;;18.85;100.00;101184.53;5042068;28;20067;-47
2022/07/03 18:01:06;;;;;;;0.65;0.00;;;;;;;18.65;100.00;101184.75;5058697;28;20387;-63
2022/07/03 18:03:59;;;;;;;0.13;0.10;;;;;;;18.50;100.00;101190.53;5057419;28;20125;-62
2022/07/03 18:06:52;;;;;;;2.40;0.00;;;;;;;18.36;100.00;101192.56;5049179;28;20515;-63
2022/07/03 18:09:46;;;;;;;0.85;0.10;;;;;;;18.40;100.00;101196.44;5050158;28;20033;-63
2022/07/03 18:12:44;;;;;;;0.10;0.00;;;;;;;18.31;100.00;101192.44;5059328;28;20485;-64
2022/07/03 18:15:48;;;;;;;0.25;0.00;;;;;;;18.19;100.00;101191.53;5034598;28;20079;-63
2022/07/03 18:18:51;;;;;;;1.45;0.63;;;;;;;18.11;100.00;101203.38;5059085;28;20033;-59
2022/07/03 18:22:12;;;;;;;0.10;0.00;;;;;;;18.02;100.00;101204.75;5038142;28;20173;-64
2022/07/03 18:25:06;;;;;;;0.20;0.00;;;;;;;18.23;100.00;101195.41;5058603;28;20127;-60
2022/07/03 18:27:59;;;;;;;0.20;0.00;;;;;;;18.51;100.00;101197.56;5061085;28;20500;-64
2022/07/03 18:30:52;;;;;;;3.40;0.32;;;;;;;18.39;100.00;101197.47;5063517;28;20453;-64
2022/07/03 18:33:47;;;;;;;2.22;0.08;;;;;;;18.22;100.00;101199.94;5054737;28;20028;-51
2022/07/03 18:36:40;;;;;;;0.20;0.00;;;;;;;18.16;100.00;101200.84;5066586;28;20044;-49
2022/07/03 18:39:34;;;;;;;0.13;0.00;;;;;;;18.14;100.00;101196.75;5060008;28;20028;-63
2022/07/03 18:42:29;;;;;;;0.73;0.00;;;;;;;18.03;100.00;101196.44;5076364;28;20029;-63
2022/07/03 18:45:21;;;;;;;0.73;0.10;;;;;;;17.93;100.00;101189.97;5060914;28;20226;-57
2022/07/03 18:48:14;;;;;;;0.10;0.10;;;;;;;17.82;100.00;101183.47;5063929;28;20093;-63
2022/07/03 18:50:58;;;;;;;0.10;0.00;;;;;;;17.74;100.00;101197.16;5061258;28;20430;-61
2022/07/03 18:54:09;;;;;;;0.32;0.10;;;;;;;17.65;100.00;101194.72;5063914;28;20108;-58
2022/07/03 18:57:17;;;;;;;0.70;0.00;;;;;;;17.56;100.00;101195.25;5054919;28;20042;-59
2022/07/03 19:00:18;;;;;;;1.95;0.20;;;;;;;17.42;100.00;101206.09;5040883;28;20045;-50
2022/07/03 19:03:21;;;;;;;2.65;0.10;;;;;;;17.29;100.00;101194.63;5056555;28;20033;-60
2022/07/03 19:06:17;;;;;;;0.75;0.10;;;;;;;17.17;100.00;101194.53;5052741;28;20037;-61
2022/07/03 19:09:23;;;;;;;2.15;1.17;;;;;;;17.03;100.00;101207.16;5056101;28;20060;-62
2022/07/03 19:12:21;;;;;;;0.00;0.00;;;;;;;16.85;100.00;101210.56;5047804;28;20408;-62
2022/07/03 19:15:17;;;;;;;1.15;0.00;;;;;;;16.73;100.00;101201.56;5053658;28;20048;-62
2022/07/03 19:18:09;;;;;;;0.15;0.10;;;;;;;16.61;100.00;101204.09;5040894;28;20461;-62
2022/07/03 19:21:01;;;;;;;0.05;0.00;;;;;;;16.47;100.00;101208.69;5053641;28;20033;-62
2022/07/03 19:23:54;;;;;;;0.10;0.10;;;;;;;16.36;100.00;101207.47;5056901;28;20044;-62
2022/07/03 19:26:46;;;;;;;0.20;0.10;;;;;;;16.20;100.00;101207.94;5045361;28;20070;-62
2022/07/03 19:29:38;;;;;;;0.55;0.00;;;;;;;15.98;100.00;101215.41;5054982;28;20040;-61
2022/07/03 19:32:41;;;;;;;0.70;0.10;;;;;;;15.92;100.00;101224.25;5055133;28;20389;-62
2022/07/03 19:35:34;;;;;;;2.58;1.17;;;;;;;15.87;100.00;101218.72;5051881;28;20047;-62
2022/07/03 19:38:28;;;;;;;1.95;0.60;;;;;;;15.78;100.00;101225.31;5051618;28;20124;-62
2022/07/03 19:41:20;;;;;;;1.75;0.05;;;;;;;15.64;100.00;101227.13;5046864;28;20439;-61
2022/07/03 19:44:14;;;;;;;0.15;0.00;;;;;;;15.44;100.00;101233.31;5053583;28;20077;-60
2022/07/03 19:47:07;;;;;;;0.10;0.03;;;;;;;15.30;100.00;101228.16;5055112;28;20407;-62
2022/07/03 19:49:59;;;;;;;1.35;0.75;;;;;;;15.13;100.00;101230.41;5061027;28;20063;-61
2022/07/03 19:52:52;;;;;;;0.60;0.10;;;;;;;15.00;100.00;101240.03;5044461;28;20052;-61
2022/07/03 19:55:44;;;;;;;0.20;0.10;;;;;;;14.87;100.00;101245.31;5055598;28;20114;-61
2022/07/03 19:58:47;;;;;;;0.05;0.00;;;;;;;14.79;100.00;101250.81;5051802;28;20165;-62
2022/07/03 20:01:39;;;;;;;1.63;0.10;;;;;;;14.76;100.00;101259.22;5056913;28;20049;-62
2022/07/03 20:04:47;;;;;;;0.28;0.10;;;;;;;14.64;100.00;101260.81;5050712;28;20036;-61
2022/07/03 20:07:39;;;;;;;2.78;0.10;;;;;;;14.45;100.00;101271.16;5052447;28;20397;-62
2022/07/03 20:10:32;;;;;;;3.75;0.10;;;;;;;14.24;100.00;101269.41;5053822;28;20043;-62
2022/07/03 20:13:27;;;;;;;0.30;0.00;;;;;;;14.08;100.00;101278.53;5052910;28;21353;-59
2022/07/03 20:16:20;;;;;;;0.20;0.00;;;;;;;13.90;100.00;101278.22;5049142;28;20032;-60
2022/07/03 20:19:13;;;;;;;0.00;0.00;;;;;;;13.78;100.00;101288.56;5049091;28;20404;-61
2022/07/03 20:22:06;;;;;;;1.65;0.22;;;;;;;13.64;100.00;101300.13;5051477;28;20774;-62
2022/07/03 20:24:58;;;;;;;4.28;0.10;;;;;;;13.47;100.00;101302.22;5051841;28;20060;-60
2022/07/03 20:27:56;;;;;;;0.90;0.10;;;;;;;13.35;100.00;101309.09;5050368;28;20036;-61
2022/07/03 20:30:48;;;;;;;1.77;0.15;;;;;;;13.21;100.00;101313.38;5056255;28;20036;-62
2022/07/03 20:36:43;;;;;;;1.02;0.20;;;;;;;13.04;100.00;101323.44;5056211;28;20047;-61
2022/07/03 20:39:50;;;;;;;0.08;0.00;;;;;;;12.90;100.00;101333.09;5057153;28;20037;-60
2022/07/03 20:42:43;;;;;;;4.80;0.10;;;;;;;12.71;100.00;101337.16;5038289;28;20353;-60
2022/07/03 20:45:39;;;;;;;0.35;0.13;;;;;;;12.57;100.00;101345.94;5063276;28;20070;-60
2022/07/03 20:55:24;;;;;;;0.45;0.10;;;;;;;12.11;100.00;101362.88;5044814;28;20136;-60
2022/07/03 20:58:16;;;;;;;0.90;0.10;;;;;;;12.05;100.00;101371.53;5044469;28;20028;-60
2022/07/03 21:01:09;;;;;;;0.10;0.03;;;;;;;11.99;100.00;101378.41;5050520;28;20146;-58
2022/07/03 21:04:01;;;;;;;0.10;0.10;;;;;;;11.85;100.00;101375.66;5052069;28;20028;-60
2022/07/03 21:06:54;;;;;;;0.28;0.08;;;;;;;11.73;100.00;101384.03;5049937;28;20020;-58
2022/07/03 21:09:47;;;;;;;1.00;0.65;;;;;;;11.65;100.00;101385.94;5047130;28;20385;-58
2022/07/03 21:12:39;;;;;;;1.05;0.20;;;;;;;11.55;100.00;101388.81;5055361;28;20055;-59
2022/07/03 21:15:31;;;;;;;0.45;0.20;;;;;;;11.45;100.00;101389.03;5049594;28;20036;-60
2022/07/03 21:18:23;;;;;;;0.17;0.17;;;;;;;11.36;100.00;101392.75;5048422;28;20082;-60
2022/07/03 21:21:15;;;;;;;1.27;0.20;;;;;;;11.19;100.00;101401.78;5055056;28;20078;-61
2022/07/03 21:24:14;;;;;;;1.55;0.30;;;;;;;11.03;100.00;101408.78;5048762;28;20087;-59
2022/07/03 21:27:09;;;;;;;1.50;0.38;;;;;;;10.93;100.00;101408.16;5049363;28;20032;-58
2022/07/03 21:30:02;;;;;;;1.25;0.30;;;;;;;10.90;100.00;101408.50;5051692;28;20137;-59
2022/07/03 21:32:54;;;;;;;0.60;0.60;;;;;;;10.78;100.00;101407.22;5058158;28;20457;-60
2022/07/03 21:35:46;;;;;;;1.20;0.60;;;;;;;10.67;100.00;101414.53;5056331;28;20120;-59
2022/07/03 21:38:38;;;;;;;0.30;0.10;;;;;;;10.55;100.00;101423.00;5052940;28;20044;-59
2022/07/03 21:41:31;;;;;;;0.10;0.10;;;;;;;10.47;100.00;101415.88;5044495;28;20082;-60
2022/07/03 21:44:24;;;;;;;0.73;0.10;;;;;;;10.44;100.00;101421.53;5052848;28;20020;-60
2022/07/03 21:47:26;;;;;;;0.85;0.13;;;;;;;10.37;100.00;101426.66;5051620;28;20044;-60
2022/07/03 21:50:19;;;;;;;0.20;0.20;;;;;;;10.23;100.00;101427.31;5057144;28;20447;-61
2022/07/03 21:53:11;;;;;;;0.25;0.00;;;;;;;10.12;100.00;101430.25;5052432;28;20709;-59
2022/07/03 21:56:03;;;;;;;0.57;0.35;;;;;;;10.01;100.00;101440.19;5053229;28;20032;-58
2022/07/03 21:58:55;;;;;;;0.03;0.00;;;;;;;9.93;100.00;101442.00;5055225;28;20029;-60
2022/07/03 22:01:47;;;;;;;0.20;0.10;;;;;;;9.91;100.00;101444.81;5059776;28;20037;-61
2022/07/03 22:04:39;;;;;;;3.63;0.17;;;;;;;9.79;100.00;101448.78;5060748;28;20112;-60
2022/07/03 22:07:32;;;;;;;3.85;0.22;;;;;;;9.72;100.00;101445.09;5058862;28;20040;-59
2022/07/03 22:10:25;;;;;;;0.10;0.00;;;;;;;9.58;100.00;101451.88;5058787;28;20090;-52
2022/07/03 22:13:18;;;;;;;1.42;0.17;;;;;;;9.49;100.00;101456.28;5057004;28;20441;-55
2022/07/03 22:16:10;;;;;;;2.00;0.28;;;;;;;9.42;100.00;101463.19;5051922;28;20032;-61
2022/07/03 22:19:03;;;;;;;0.77;0.30;;;;;;;9.42;100.00;101465.03;5054892;28;20028;-60
2022/07/03 22:21:55;;;;;;;1.02;0.20;;;;;;;9.45;100.00;101457.63;5033976;28;20029;-57
2022/07/03 22:24:47;;;;;;;0.55;0.25;;;;;;;9.47;100.00;101462.72;5056243;28;20033;-58
2022/07/03 22:27:40;;;;;;;2.08;0.32;;;;;;;9.53;100.00;101451.53;5056456;28;20063;-57
2022/07/03 22:30:33;;;;;;;1.90;0.30;;;;;;;9.61;100.00;101462.97;5059922;28;20028;-60
2022/07/03 22:33:26;;;;;;;1.35;0.00;;;;;;;9.59;100.00;101459.63;5052980;28;20517;-60
2022/07/03 22:36:18;;;;;;;0.98;0.25;;;;;;;9.49;100.00;101461.59;5054809;28;20145;-59
2022/07/03 22:39:10;;;;;;;0.70;0.40;;;;;;;9.38;100.00;101470.66;5055778;28;20040;-54
2022/07/03 22:42:02;;;;;;;2.17;0.40;;;;;;;9.33;100.00;101466.81;5057050;28;20063;-59
2022/07/03 22:44:54;;;;;;;1.45;0.17;;;;;;;9.35;100.00;101460.38;5061139;28;20035;-61
2022/07/03 22:47:47;;;;;;;0.80;0.32;;;;;;;9.35;100.00;101463.03;5043266;28;20360;-59
2022/07/03 22:50:39;;;;;;;2.30;0.28;;;;;;;9.28;100.00;101464.63;5055525;28;20488;-57
2022/07/03 22:53:31;;;;;;;0.75;0.10;;;;;;;9.24;100.00;101458.03;5057696;28;20036;-59
2022/07/03 22:56:24;;;;;;;0.80;0.10;;;;;;;9.22;100.00;101460.00;5056425;28;20032;-60
2022/07/03 22:59:16;;;;;;;2.20;0.77;;;;;;;9.25;100.00;101464.97;5056405;28;20044;-59
2022/07/03 23:02:08;;;;;;;0.30;0.30;;;;;;;9.29;100.00;101455.72;5055233;28;20541;-58
2022/07/03 23:05:00;;;;;;;0.30;0.10;;;;;;;9.39;100.00;101463.53;5059124;28;20598;-60
2022/07/03 23:07:53;;;;;;;1.50;0.32;;;;;;;9.48;100.00;101459.94;5051540;28;20047;-59
2022/07/03 23:10:45;;;;;;;2.17;0.85;;;;;;;9.48;100.00;101467.06;5064254;28;20487;-59
2022/07/03 23:13:37;;;;;;;0.77;0.43;;;;;;;9.32;100.00;101455.41;5059194;28;20032;-57
2022/07/03 23:16:29;;;;;;;1.05;0.30;;;;;;;9.19;100.00;101455.03;5065562;28;20040;-58
2022/07/03 23:19:21;;;;;;;0.95;0.10;;;;;;;9.02;100.00;101462.03;5060556;28;20110;-60
2022/07/03 23:22:14;;;;;;;0.85;0.17;;;;;;;8.94;100.00;101454.06;5061308;28;20492;-55
2022/07/03 23:25:06;;;;;;;0.25;0.20;;;;;;;8.88;100.00;101447.56;5056582;28;20478;-53
2022/07/03 23:27:58;;;;;;;0.47;0.47;;;;;;;8.82;100.00;101457.94;5056331;28;20469;-55
2022/07/03 23:30:50;;;;;;;0.35;0.20;;;;;;;8.73;100.00;101449.13;5061810;28;20074;-58
2022/07/03 23:33:42;;;;;;;1.15;0.17;;;;;;;8.66;100.00;101458.66;5060290;28;20037;-60
2022/07/03 23:36:34;;;;;;;2.30;0.80;;;;;;;8.60;100.00;101464.56;5063475;28;20029;-59
2022/07/03 23:39:27;;;;;;;0.32;0.03;;;;;;;8.55;100.00;101467.69;5064396;28;20155;-56
2022/07/03 23:42:19;;;;;;;0.98;0.00;;;;;;;8.52;100.00;101468.81;5062333;28;20043;-60
2022/07/03 23:45:11;;;;;;;0.63;0.30;;;;;;;8.47;100.00;101468.44;5062307;28;20171;-59
2022/07/03 23:48:03;;;;;;;0.00;0.00;;;;;;;8.36;100.00;101455.41;5067871;28;20022;-60
2022/07/03 23:50:56;;;;;;;1.05;0.38;;;;;;;8.29;100.00;101449.94;5055687;28;20385;-59
2022/07/03 23:53:48;;;;;;;0.30;0.20;;;;;;;8.23;100.00;101465.53;5062826;28;20140;-59
2022/07/03 23:56:40;;;;;;;0.45;0.30;;;;;;;8.19;100.00;101472.13;5032905;28;20033;-60
2022/07/03 23:59:32;;;;;;;0.55;0.08;;;;;;;8.15;100.00;101465.47;5063343;28;20040;-59
